Time;durP1;ratioP1;P1;durP2;ratioP2;P2;SDS_P1;SDS_P2;PMS_P1;PMS_P2;Temp;Humidity;BMP_temperature;BMP_pressure;BME280_temperature;BME280_humidity;BME280_pressure;Samples;Min_cycle;Max_cycle;Signal;HPM_P1;HPM_P2
2021/04/24 00:00:20;;;;;;;8.98;3.40;;;;;;;-0.58;55.27;100030.32;1706539;82;21017;-71
2021/04/24 00:02:51;;;;;;;6.22;3.22;;;;;;;-0.62;55.35;100027.30;1710723;81;21230;-71
2021/04/24 00:05:23;;;;;;;8.90;3.47;;;;;;;-0.65;55.50;100023.45;1708250;81;21221;-71
2021/04/24 00:08:00;;;;;;;8.95;3.12;;;;;;;-0.68;55.60;100034.12;1741400;81;21114;-71
2021/04/24 00:10:32;;;;;;;5.42;2.95;;;;;;;-0.72;55.57;100026.00;1726557;81;21010;-71
2021/04/24 00:13:01;;;;;;;10.48;3.27;;;;;;;-0.75;55.72;100028.55;1744104;81;21649;-71
2021/04/24 00:15:28;;;;;;;9.78;3.20;;;;;;;-0.77;55.86;100031.53;1724575;81;21710;-70
2021/04/24 00:18:00;;;;;;;5.42;2.67;;;;;;;-0.79;55.88;100024.25;1712045;83;21580;-70
2021/04/24 00:20:32;;;;;;;5.08;2.85;;;;;;;-0.79;55.94;100030.66;1720216;82;22472;-70
2021/04/24 00:23:02;;;;;;;6.05;2.50;;;;;;;-0.81;56.00;100025.97;1725718;81;21106;-71
2021/04/24 00:25:30;;;;;;;9.43;3.33;;;;;;;-0.79;56.21;100026.81;1723550;82;21371;-71
2021/04/24 00:27:58;;;;;;;5.90;2.50;;;;;;;-0.82;56.29;100019.11;1747114;80;21211;-71
2021/04/24 00:30:29;;;;;;;7.72;2.70;;;;;;;-0.83;56.33;100022.54;1699811;81;21255;-71
2021/04/24 00:32:56;;;;;;;10.32;2.80;;;;;;;-0.88;56.36;100024.23;1748290;81;21250;-71
2021/04/24 00:35:25;;;;;;;8.50;3.37;;;;;;;-0.95;56.42;100026.34;1722458;81;21037;-71
2021/04/24 00:37:53;;;;;;;9.20;2.70;;;;;;;-0.96;56.62;100024.62;1750072;80;21073;-71
2021/04/24 00:40:21;;;;;;;10.60;3.02;;;;;;;-0.95;56.71;100031.47;1756568;80;21129;-71
2021/04/24 00:42:50;;;;;;;7.62;2.77;;;;;;;-0.95;56.74;100037.88;1751986;80;21171;-71
2021/04/24 00:45:22;;;;;;;7.08;2.70;;;;;;;-0.97;56.75;100039.58;1754166;80;21298;-71
2021/04/24 00:47:51;;;;;;;5.28;2.60;;;;;;;-0.95;57.00;100045.57;1759077;80;21649;-71
2021/04/24 00:50:28;;;;;;;7.92;2.95;;;;;;;-0.94;57.06;100044.71;1769791;79;21053;-71
2021/04/24 00:52:58;;;;;;;10.60;3.10;;;;;;;-0.96;57.08;100039.99;1770603;80;21205;-71
2021/04/24 00:55:30;;;;;;;5.85;2.70;;;;;;;-0.98;57.29;100042.97;1759881;80;21473;-70
2021/04/24 00:58:02;;;;;;;6.67;2.87;;;;;;;-1.00;57.36;100042.12;1741894;81;22161;-70
2021/04/24 01:00:35;;;;;;;6.53;2.37;;;;;;;-1.00;57.37;100039.56;1744432;81;21177;-70
2021/04/24 01:03:03;;;;;;;5.35;2.40;;;;;;;-0.99;57.56;100039.98;1724892;81;21136;-70
2021/04/24 01:05:40;;;;;;;7.42;3.02;;;;;;;-1.00;57.66;100044.69;1730183;80;21131;-70
2021/04/24 01:08:11;;;;;;;8.18;3.30;;;;;;;-0.99;57.76;100041.27;1742671;81;21135;-71
2021/04/24 01:10:44;;;;;;;7.00;2.52;;;;;;;-1.01;57.84;100045.52;1742090;81;21229;-71
2021/04/24 01:13:14;;;;;;;8.68;2.85;;;;;;;-1.03;57.88;100042.97;1772916;79;21155;-71
2021/04/24 01:15:46;;;;;;;5.70;2.77;;;;;;;-1.04;58.06;100043.80;1756311;80;21090;-71
2021/04/24 01:18:14;;;;;;;4.15;2.70;;;;;;;-1.03;58.22;100052.36;1755747;79;21607;-71
2021/04/24 01:20:42;;;;;;;4.67;2.65;;;;;;;-1.06;58.17;100039.54;1771655;79;21732;-71
2021/04/24 01:23:10;;;;;;;7.72;2.85;;;;;;;-1.08;58.30;100051.48;1782537;78;21223;-71
2021/04/24 01:25:40;;;;;;;5.62;2.35;;;;;;;-1.10;58.28;100050.17;1744754;79;21155;-70
2021/04/24 01:28:09;;;;;;;6.62;2.42;;;;;;;-1.09;58.44;100047.19;1772788;79;21224;-70
2021/04/24 01:30:41;;;;;;;6.80;2.65;;;;;;;-1.11;58.43;100050.19;1755376;80;21166;-70
2021/04/24 01:33:11;;;;;;;5.85;2.70;;;;;;;-1.10;58.54;100045.48;1736031;81;21219;-71
2021/04/24 01:35:42;;;;;;;6.17;2.17;;;;;;;-1.11;58.58;100046.34;1734180;81;22124;-71
2021/04/24 01:38:11;;;;;;;7.40;3.17;;;;;;;-1.13;58.76;100047.60;1738939;81;21042;-70
2021/04/24 01:40:38;;;;;;;8.38;2.98;;;;;;;-1.16;58.80;100042.03;1750620;79;21131;-71
2021/04/24 01:43:06;;;;;;;;;;;;;;;-1.18;58.97;100038.59;1774366;79;21081;-70
2021/04/24 01:45:36;;;;;;;7.33;2.60;;;;;;;-1.21;59.18;100036.02;1755354;80;20299;-71
2021/04/24 01:48:08;;;;;;;6.75;2.37;;;;;;;-1.26;59.04;100039.01;1743206;80;21203;-70
2021/04/24 01:50:41;;;;;;;9.13;3.22;;;;;;;-1.31;59.07;100022.75;1747902;80;21148;-71
2021/04/24 01:53:13;;;;;;;5.37;2.50;;;;;;;-1.38;59.16;100023.55;1744195;80;21492;-71
2021/04/24 01:55:42;;;;;;;12.28;2.70;;;;;;;-1.42;59.24;100025.67;1746198;80;21189;-71
2021/04/24 01:58:13;;;;;;;10.58;2.92;;;;;;;-1.42;59.35;100030.80;1754477;80;21155;-71
2021/04/24 02:00:47;;;;;;;5.08;2.60;;;;;;;-1.44;59.48;100027.36;1727873;80;22169;-70
2021/04/24 02:03:15;;;;;;;5.58;2.33;;;;;;;-1.46;59.66;100026.48;1750289;80;21639;-70
2021/04/24 02:05:47;;;;;;;8.58;2.58;;;;;;;-1.48;59.89;100023.92;1751867;80;21741;-70
2021/04/24 02:08:27;;;;;;;5.62;2.42;;;;;;;-1.50;59.77;100017.08;1736991;80;21189;-70
2021/04/24 02:10:55;;;;;;;9.85;3.70;;;;;;;-1.53;59.94;100018.34;1744229;80;21151;-71
2021/04/24 02:13:27;;;;;;;8.45;2.37;;;;;;;-1.53;59.89;100022.19;1745340;80;21239;-70
2021/04/24 02:17:41;;;;;;;7.50;3.37;;;;;;;-1.50;60.19;100015.80;1785306;77;22852;-69
2021/04/24 02:20:11;;;;;;;7.62;2.92;;;;;;;-1.55;60.45;100017.47;1744302;80;21242;-68
2021/04/24 02:22:39;;;;;;;9.28;3.00;;;;;;;-1.57;60.19;100012.32;1742764;80;22433;-69
2021/04/24 02:25:08;;;;;;;13.43;3.20;;;;;;;-1.52;60.49;100011.08;1746239;80;21681;-69
2021/04/24 02:27:35;;;;;;;6.62;3.08;;;;;;;-1.48;60.85;100008.98;1748591;80;21033;-69
2021/04/24 02:30:05;;;;;;;9.05;3.10;;;;;;;-1.43;60.72;100011.13;1750541;80;21607;-70
2021/04/24 02:32:32;;;;;;;5.08;2.90;;;;;;;-1.44;60.79;100009.00;1749425;80;21056;-70
2021/04/24 02:35:00;;;;;;;7.53;2.92;;;;;;;-1.43;60.90;100007.29;1743384;80;21417;-70
2021/04/24 02:37:28;;;;;;;9.78;2.55;;;;;;;-1.44;60.87;100009.42;1748251;80;21073;-69
2021/04/24 02:39:55;;;;;;;8.10;2.35;;;;;;;-1.46;60.95;100014.52;1744450;80;28875;-69
2021/04/24 02:42:26;;;;;;;10.48;3.02;;;;;;;-1.51;61.02;100012.39;1745194;80;21157;-69
2021/04/24 02:44:56;;;;;;;6.78;2.50;;;;;;;-1.52;61.01;100008.52;1750528;80;21717;-70
2021/04/24 02:47:24;;;;;;;8.25;2.80;;;;;;;-1.53;61.07;100010.23;1745045;80;22121;-70
2021/04/24 02:49:52;;;;;;;10.13;3.02;;;;;;;-1.58;61.20;100008.91;1747273;80;21160;-70
2021/04/24 02:52:19;;;;;;;5.42;2.90;;;;;;;-1.58;61.26;100003.79;1745339;80;21068;-70
2021/04/24 02:54:46;;;;;;;6.92;2.62;;;;;;;-1.60;61.33;100004.22;1750742;80;28648;-70
2021/04/24 02:57:13;;;;;;;6.60;2.95;;;;;;;-1.62;61.50;100003.34;1745137;80;21075;-70
2021/04/24 02:59:40;;;;;;;9.90;2.92;;;;;;;-1.64;61.50;100010.16;1748425;80;21289;-70
2021/04/24 03:02:07;;;;;;;6.78;2.87;;;;;;;-1.67;61.55;100007.58;1747918;80;21264;-70
2021/04/24 03:04:34;;;;;;;9.60;3.42;;;;;;;-1.69;61.72;100009.26;1743673;80;21220;-70
2021/04/24 03:07:01;;;;;;;12.30;4.00;;;;;;;-1.68;61.86;100013.56;1747635;80;21161;-70
2021/04/24 03:09:28;;;;;;;11.70;3.85;;;;;;;-1.69;61.73;100007.98;1751434;80;20997;-70
2021/04/24 03:11:55;;;;;;;9.33;3.58;;;;;;;-1.71;61.82;100005.86;1746123;80;21294;-70
2021/04/24 03:14:22;;;;;;;11.00;3.08;;;;;;;-1.72;61.92;100005.83;1751447;80;21067;-70
2021/04/24 03:16:49;;;;;;;6.45;2.90;;;;;;;-1.75;62.00;100001.55;1752012;80;21169;-70
2021/04/24 03:19:16;;;;;;;6.95;2.85;;;;;;;-1.74;62.15;100007.52;1744722;80;21638;-70
2021/04/24 03:21:43;;;;;;;6.25;2.60;;;;;;;-1.73;62.14;100007.55;1749476;80;21499;-70
2021/04/24 03:24:10;;;;;;;6.15;2.80;;;;;;;-1.73;62.29;100004.98;1746477;80;21809;-70
2021/04/24 03:26:37;;;;;;;10.00;3.72;;;;;;;-1.72;62.42;100006.69;1750254;80;21013;-70
2021/04/24 03:29:04;;;;;;;7.83;3.02;;;;;;;-1.69;62.45;100009.69;1750664;80;21068;-70
2021/04/24 03:31:32;;;;;;;9.78;2.70;;;;;;;-1.64;62.52;100005.03;1748720;80;21252;-69
2021/04/24 03:34:00;;;;;;;6.95;3.05;;;;;;;-1.52;62.70;100013.64;1742186;80;21708;-70
2021/04/24 03:36:27;;;;;;;8.28;2.85;;;;;;;-1.39;62.83;100014.16;1750397;80;21238;-71
2021/04/24 03:38:53;;;;;;;5.65;2.37;;;;;;;-1.25;62.79;100008.69;1747397;80;21096;-70
2021/04/24 03:41:20;;;;;;;7.30;3.20;;;;;;;-1.08;62.83;100013.04;1756366;80;21129;-71
2021/04/24 03:43:47;;;;;;;6.92;2.65;;;;;;;-0.88;62.98;100011.41;1750723;80;21681;-71
2021/04/24 03:46:14;;;;;;;9.70;3.50;;;;;;;-0.28;63.46;100007.30;1753730;80;21388;-71
2021/04/24 03:48:42;;;;;;;6.70;2.33;;;;;;;0.76;63.40;100011.94;1746363;80;21395;-72
2021/04/24 03:51:10;;;;;;;8.00;2.85;;;;;;;1.86;63.16;100015.23;1750973;80;21180;-71
2021/04/24 03:53:37;;;;;;;5.15;2.45;;;;;;;2.94;62.87;100011.65;1752136;80;24974;-72
2021/04/24 03:56:06;;;;;;;16.67;2.70;;;;;;;3.99;62.31;100017.12;1754941;79;21212;-72
2021/04/24 03:58:33;;;;;;;12.82;2.60;;;;;;;4.82;61.40;100015.70;1746636;80;21232;-72
2021/04/24 04:01:00;;;;;;;16.80;3.52;;;;;;;5.67;61.50;100010.91;1754206;80;21643;-72
2021/04/24 04:03:27;;;;;;;13.35;3.02;;;;;;;6.56;60.94;100003.14;1753830;80;21230;-72
2021/04/24 04:05:54;;;;;;;9.68;3.87;;;;;;;7.16;59.94;100001.03;1756367;80;21241;-72
2021/04/24 04:08:21;;;;;;;6.12;2.37;;;;;;;7.84;60.33;100000.29;1762275;80;21866;-73
2021/04/24 04:10:48;;;;;;;4.97;2.50;;;;;;;8.54;60.07;100003.65;1757212;80;21239;-71
2021/04/24 04:13:15;;;;;;;7.42;2.45;;;;;;;9.26;59.75;99997.62;1758149;80;22250;-72
2021/04/24 04:15:43;;;;;;;11.75;3.33;;;;;;;9.78;59.22;99991.72;1752841;80;21172;-72
2021/04/24 04:18:19;;;;;;;19.25;5.65;;;;;;;10.12;58.65;99991.66;1740161;81;21228;-72
2021/04/24 04:20:52;;;;;;;21.77;5.25;;;;;;;10.46;58.85;99991.13;1736857;81;21239;-72
2021/04/24 04:23:24;;;;;;;28.23;6.58;;;;;;;11.39;59.01;99993.50;1744465;81;21619;-72
2021/04/24 04:25:51;;;;;;;26.80;6.17;;;;;;;12.12;58.56;99989.62;1742237;81;21201;-73
2021/04/24 04:28:20;;;;;;;18.57;6.35;;;;;;;12.72;58.38;99991.39;1741881;81;21647;-73
2021/04/24 04:30:49;;;;;;;26.35;7.42;;;;;;;12.95;57.40;99992.81;1747919;81;21288;-73
2021/04/24 04:33:16;;;;;;;34.00;7.30;;;;;;;13.21;57.36;99990.09;1742281;81;21103;-73
2021/04/24 04:35:45;;;;;;;;;;;;;;;13.79;57.53;99989.19;1744146;81;21145;-71
2021/04/24 04:38:13;;;;;;;9.80;2.72;;;;;;;14.33;56.54;99989.56;1742766;81;21228;-72
2021/04/24 04:40:41;;;;;;;26.52;4.78;;;;;;;14.46;55.77;99993.17;1744017;81;21369;-73
2021/04/24 04:43:08;;;;;;;102.97;11.65;;;;;;;14.52;56.11;99987.58;1742139;80;21042;-72
2021/04/24 04:45:35;;;;;;;231.28;27.22;;;;;;;14.57;55.46;99993.05;1745009;81;21690;-73
2021/04/24 04:48:05;;;;;;;95.77;14.10;;;;;;;14.75;55.61;99989.30;1735727;81;21714;-73
2021/04/24 04:50:36;;;;;;;35.43;7.37;;;;;;;14.80;54.32;99991.66;1743109;81;21189;-73
2021/04/24 04:53:04;;;;;;;37.78;6.35;;;;;;;14.78;54.91;99988.63;1723474;81;21246;-73
2021/04/24 04:55:32;;;;;;;17.32;3.72;;;;;;;15.17;54.94;99988.93;1740438;81;21023;-74
2021/04/24 04:57:58;;;;;;;;;;;;;;;15.74;55.16;99986.23;1747735;81;21212;-74
2021/04/24 05:00:25;;;;;;;;;;;;;;;16.38;54.08;99980.28;1739934;81;20228;-74
2021/04/24 05:02:53;;;;;;;28.98;6.87;;;;;;;16.33;53.27;99982.77;1741146;81;22133;-73
2021/04/24 05:05:24;;;;;;;22.77;4.50;;;;;;;15.94;52.56;99984.09;1746406;81;21172;-74
2021/04/24 05:07:51;;;;;;;17.85;4.30;;;;;;;15.40;53.18;99984.85;1743575;81;21667;-73
2021/04/24 05:10:22;;;;;;;7.47;2.30;;;;;;;15.77;53.39;99988.67;1742337;81;21050;-73
2021/04/24 05:12:49;;;;;;;11.68;2.30;;;;;;;16.01;52.66;99990.64;1739803;80;21238;-73
2021/04/24 05:15:17;;;;;;;15.45;2.35;;;;;;;16.12;51.69;99989.45;1743243;81;21469;-73
2021/04/24 05:17:44;;;;;;;38.63;5.37;;;;;;;15.44;51.58;99989.00;1743484;79;21632;-73
2021/04/24 05:20:13;;;;;;;10.75;2.80;;;;;;;14.64;51.95;99990.41;1740278;80;21599;-72
2021/04/24 05:22:40;;;;;;;5.83;1.90;;;;;;;14.74;52.39;99992.87;1741870;81;21568;-73
2021/04/24 05:25:07;;;;;;;3.90;1.52;;;;;;;15.16;52.14;99997.77;1743164;81;21220;-73
2021/04/24 05:27:36;;;;;;;4.28;1.85;;;;;;;15.45;51.83;99996.78;1740130;81;21208;-73
2021/04/24 05:30:05;;;;;;;5.70;1.80;;;;;;;15.92;50.92;99993.87;1742497;81;21691;-73
2021/04/24 05:32:33;;;;;;;5.15;1.30;;;;;;;15.65;50.73;100002.56;1743529;81;21155;-74
2021/04/24 05:35:00;;;;;;;;;;;;;;;15.22;50.16;100000.02;1745546;81;21300;-73
2021/04/24 05:37:26;;;;;;;;;;;;;;;14.25;50.13;100004.92;1745156;81;20236;-74
2021/04/24 05:39:57;;;;;;;;;;;;;;;13.72;49.85;100007.03;1744907;81;21198;-73
2021/04/24 05:42:23;;;;;;;3.65;1.85;;;;;;;13.23;50.61;100014.94;1739728;81;20205;-73
2021/04/24 05:44:50;;;;;;;8.83;2.15;;;;;;;13.68;51.47;100005.52;1739573;81;21084;-73
2021/04/24 05:47:17;;;;;;;7.95;2.08;;;;;;;14.64;51.02;100004.86;1735284;81;21153;-74
2021/04/24 05:49:44;;;;;;;5.90;1.57;;;;;;;15.22;50.77;100000.02;1737073;81;21137;-74
2021/04/24 05:52:11;;;;;;;;;;;;;;;15.06;49.73;100001.89;1741138;81;21274;-73
2021/04/24 05:54:39;;;;;;;5.12;1.70;;;;;;;14.84;49.16;100005.82;1737546;81;20228;-73
2021/04/24 05:57:06;;;;;;;4.62;1.80;;;;;;;14.98;50.06;99999.28;1735535;82;21579;-73
2021/04/24 05:59:33;;;;;;;7.08;2.83;;;;;;;14.57;49.17;99999.61;1732435;81;21180;-71
2021/04/24 06:02:00;;;;;;;;;;;;;;;13.70;48.81;100010.70;1740518;81;21205;-72
2021/04/24 06:04:27;;;;;;;25.95;2.92;;;;;;;12.48;48.34;100012.29;1736565;81;22129;-73
2021/04/24 06:06:54;;;;;;;5.28;1.72;;;;;;;11.62;49.23;100015.98;1735125;81;21200;-72
2021/04/24 06:09:21;;;;;;;2.30;1.10;;;;;;;11.21;49.42;100017.88;1737157;81;21141;-74
2021/04/24 06:11:48;;;;;;;2.80;1.17;;;;;;;11.53;50.23;100016.39;1737463;81;21153;-73
2021/04/24 06:14:15;;;;;;;5.85;1.60;;;;;;;11.47;49.10;100026.30;1738636;81;21232;-72
2021/04/24 06:16:42;;;;;;;5.03;2.55;;;;;;;10.93;49.13;100024.33;1736908;81;21208;-72
2021/04/24 06:19:08;;;;;;;4.62;2.15;;;;;;;11.05;49.73;100029.94;1747756;79;21232;-72
2021/04/24 06:21:35;;;;;;;4.40;1.70;;;;;;;11.02;49.36;100027.45;1748725;80;21269;-70
2021/04/24 06:24:03;;;;;;;5.20;1.40;;;;;;;10.46;48.77;100033.73;1746872;80;21187;-71
2021/04/24 06:26:29;;;;;;;;;;;;;;;9.82;48.33;100036.31;1742259;80;21159;-72
2021/04/24 06:28:56;;;;;;;2.80;1.40;;;;;;;9.21;48.86;100039.92;1748344;80;21418;-72
2021/04/24 06:31:23;;;;;;;5.08;1.47;;;;;;;8.86;49.35;100036.84;1753608;80;21686;-72
2021/04/24 06:33:52;;;;;;;7.33;1.40;;;;;;;8.78;49.72;100044.07;1758683;80;21082;-72
2021/04/24 06:36:19;;;;;;;39.83;3.58;;;;;;;8.69;49.73;100042.18;1756916;80;21229;-72
2021/04/24 06:38:46;;;;;;;2.98;1.00;;;;;;;8.87;49.89;100041.14;1756920;80;21207;-72
2021/04/24 06:41:13;;;;;;;10.45;2.08;;;;;;;8.76;49.52;100038.06;1753210;80;21213;-71
2021/04/24 06:43:41;;;;;;;2.90;0.70;;;;;;;8.47;49.63;100042.52;1757054;80;21388;-71
2021/04/24 06:46:08;;;;;;;2.30;0.72;;;;;;;8.53;49.34;100042.30;1753534;80;21458;-71
2021/04/24 06:48:35;;;;;;;1.92;0.60;;;;;;;8.66;49.92;100037.09;1745796;80;21242;-71
2021/04/24 06:51:02;;;;;;;1.22;0.70;;;;;;;9.12;49.52;100040.66;1749938;80;21607;-72
2021/04/24 06:53:29;;;;;;;2.47;0.98;;;;;;;8.56;48.06;100039.59;1728147;80;21466;-73
2021/04/24 06:56:17;;;;;;;1.98;0.80;;;;;;;8.13;49.14;100043.59;1756807;80;21771;-74
2021/04/24 06:58:57;;;;;;;2.08;0.80;;;;;;;8.29;49.88;100036.99;1754013;80;21258;-74
2021/04/24 07:01:24;;;;;;;4.87;0.85;;;;;;;8.58;49.88;100033.89;1728638;80;21641;-74
2021/04/24 07:03:51;;;;;;;14.38;1.67;;;;;;;8.42;49.72;100020.99;1751372;80;21144;-73
2021/04/24 07:06:18;;;;;;;4.87;0.88;;;;;;;8.58;49.87;100043.00;1748314;80;22810;-74
2021/04/24 07:08:47;;;;;;;13.22;1.62;;;;;;;8.88;50.09;100037.65;1749355;80;21247;-74
2021/04/24 07:11:14;;;;;;;5.05;1.17;;;;;;;9.46;50.36;100044.63;1752890;80;21243;-73
2021/04/24 07:13:41;;;;;;;3.35;0.88;;;;;;;9.73;49.58;100037.98;1727984;80;21162;-72
2021/04/24 07:16:11;;;;;;;3.70;1.22;;;;;;;9.26;49.11;100044.06;1755351;80;21204;-73
2021/04/24 07:18:40;;;;;;;4.92;1.07;;;;;;;9.10;49.58;100051.61;1750900;80;21404;-74
2021/04/24 07:21:07;;;;;;;2.05;0.90;;;;;;;8.89;49.94;100039.34;1745696;80;21618;-73
2021/04/24 07:23:36;;;;;;;;;;;;;;;8.68;50.08;100052.20;1748661;80;21213;-73
2021/04/24 07:26:04;;;;;;;4.72;1.20;;;;;;;8.55;49.88;100053.52;1726582;80;20245;-73
2021/04/24 07:28:32;;;;;;;2.62;0.72;;;;;;;8.30;50.20;100054.29;1714427;82;21143;-72
2021/04/24 07:31:01;;;;;;;3.45;1.25;;;;;;;8.23;50.21;100052.80;1715295;82;21165;-72
2021/04/24 07:33:29;;;;;;;1.77;0.60;;;;;;;7.94;50.04;100058.06;1713950;82;21662;-73
2021/04/24 07:35:58;;;;;;;1.35;0.72;;;;;;;7.64;49.28;100063.28;1717929;82;21274;-72
2021/04/24 07:38:27;;;;;;;2.27;0.80;;;;;;;7.26;49.72;100058.77;1718842;82;21153;-72
2021/04/24 07:40:54;;;;;;;1.40;0.70;;;;;;;7.17;49.32;100058.58;1716383;82;21272;-72
2021/04/24 07:43:21;;;;;;;2.90;0.78;;;;;;;7.43;49.39;100061.34;1716757;82;21251;-71
2021/04/24 07:45:48;;;;;;;2.17;0.70;;;;;;;7.61;49.35;100060.78;1711696;82;22272;-70
2021/04/24 07:48:17;;;;;;;2.22;0.72;;;;;;;7.65;48.02;100033.82;1717434;82;21201;-71
2021/04/24 07:50:49;;;;;;;2.90;0.95;;;;;;;7.65;48.02;100033.82;1712546;82;21223;-71
2021/04/24 07:53:20;;;;;;;3.90;0.85;;;;;;;7.77;48.76;100062.03;1706784;82;21190;-72
2021/04/24 07:55:48;;;;;;;4.40;0.70;;;;;;;8.13;49.52;100051.39;1713078;82;21217;-68
2021/04/24 07:58:16;;;;;;;;;;;;;;;8.56;49.42;100058.27;1718633;82;21253;-71
2021/04/24 08:00:43;;;;;;;3.55;0.50;;;;;;;8.77;45.34;100058.00;1717625;82;20199;-69
2021/04/24 08:03:10;;;;;;;7.75;0.60;;;;;;;8.80;48.11;100054.84;1705317;82;22178;-69
2021/04/24 08:05:37;;;;;;;1.10;0.45;;;;;;;8.94;48.34;100043.94;1740517;80;21125;-71
2021/04/24 08:08:04;;;;;;;1.47;0.82;;;;;;;8.55;44.42;100057.87;1739306;80;21270;-71
2021/04/24 08:10:32;;;;;;;14.43;1.62;;;;;;;8.38;47.24;100063.61;1748990;80;21194;-71
2021/04/24 08:13:01;;;;;;;2.05;0.40;;;;;;;8.51;47.71;100061.02;1741757;80;21095;-71
2021/04/24 08:15:28;;;;;;;2.25;0.57;;;;;;;8.80;47.28;100060.05;1722969;80;21038;-70
2021/04/24 08:17:56;;;;;;;1.17;0.40;;;;;;;8.74;46.99;100061.11;1745231;80;21610;-70
2021/04/24 08:20:23;;;;;;;1.20;0.30;;;;;;;8.89;47.16;100060.17;1739377;81;21448;-69
2021/04/24 08:22:50;;;;;;;;;;;;;;;8.68;43.91;100060.02;1743025;80;21238;-70
2021/04/24 08:25:18;;;;;;;3.47;0.60;;;;;;;8.11;43.96;100058.38;1746991;80;20234;-69
2021/04/24 08:27:45;;;;;;;2.08;0.50;;;;;;;8.33;46.92;100059.00;1750657;80;21631;-71
2021/04/24 08:30:15;;;;;;;2.52;0.60;;;;;;;8.67;45.03;100053.09;1749329;80;21580;-71
2021/04/24 08:32:45;;;;;;;3.30;0.45;;;;;;;8.67;44.33;100043.98;1722299;81;21597;-71
2021/04/24 08:35:13;;;;;;;2.30;0.15;;;;;;;8.46;42.21;100082.46;1691025;83;21078;-71
2021/04/24 08:37:41;;;;;;;0.33;0.17;;;;;;;7.84;42.27;100073.95;1744432;80;21185;-70
2021/04/24 08:40:11;;;;;;;2.47;0.23;;;;;;;7.57;42.72;100072.17;1715546;81;21084;-70
2021/04/24 08:42:39;;;;;;;0.70;0.28;;;;;;;7.33;41.05;100071.97;1685687;83;21213;-70
2021/04/24 08:45:16;;;;;;;0.20;0.17;;;;;;;7.39;38.80;100061.43;1687185;83;21219;-70
2021/04/24 08:47:51;;;;;;;3.98;0.20;;;;;;;7.42;40.34;100075.20;1691085;83;24504;-69
2021/04/24 08:50:26;;;;;;;2.05;0.20;;;;;;;7.77;41.75;100084.58;1719817;81;21629;-70
2021/04/24 08:52:54;;;;;;;0.20;0.10;;;;;;;7.63;40.70;100071.99;1683278;83;21147;-69
2021/04/24 08:55:23;;;;;;;;;;;;;;;7.67;38.13;100063.19;1744554;80;21241;-71
2021/04/24 08:57:52;;;;;;;0.72;0.20;;;;;;;7.93;40.86;100072.82;1752293;80;21155;-70
2021/04/24 09:00:26;;;;;;;0.57;0.25;;;;;;;8.01;38.21;100075.16;1745295;80;21222;-71
2021/04/24 09:02:54;;;;;;;0.78;0.15;;;;;;;8.20;39.59;100072.39;1727275;81;21100;-72
2021/04/24 09:05:24;;;;;;;2.65;0.35;;;;;;;8.18;38.02;100075.51;1697116;83;21267;-71
2021/04/24 09:08:04;;;;;;;1.47;0.20;;;;;;;7.93;37.97;100074.58;1720316;81;21673;-70
2021/04/24 09:10:39;;;;;;;0.20;0.20;;;;;;;7.94;39.93;100063.27;1697411;83;21587;-70
2021/04/24 09:13:21;;;;;;;1.00;0.40;;;;;;;8.27;39.99;100067.40;1792695;78;22755;-70
2021/04/24 09:15:49;;;;;;;0.20;0.20;;;;;;;8.29;39.29;100075.17;1767109;80;21226;-69
2021/04/24 09:18:17;;;;;;;0.65;0.10;;;;;;;7.91;37.00;100082.86;1770300;79;21192;-71
2021/04/24 09:23:40;;;;;;;2.73;0.50;;;;;;;7.81;39.51;100067.55;1780894;78;27903;-69
2021/04/24 09:26:10;;;;;;;2.80;0.30;;;;;;;8.34;38.62;100067.20;1764710;79;21114;-69
2021/04/24 09:28:42;;;;;;;0.20;0.20;;;;;;;8.42;38.26;100069.98;1771894;78;22177;-72
2021/04/24 09:31:14;;;;;;;1.22;0.40;;;;;;;8.23;39.10;100063.21;1769314;79;21058;-71
2021/04/24 09:33:46;;;;;;;0.95;0.30;;;;;;;7.75;36.19;100070.77;1767783;80;21042;-71
2021/04/24 09:36:15;;;;;;;2.70;0.40;;;;;;;7.44;38.12;100076.02;1767976;78;21050;-71
2021/04/24 09:38:46;;;;;;;2.42;0.50;;;;;;;7.88;39.48;100075.16;1763701;80;21081;-71
2021/04/24 09:41:27;;;;;;;4.87;0.70;;;;;;;8.28;40.07;100071.69;1762859;79;21350;-72
2021/04/24 09:44:14;;;;;;;2.42;0.57;;;;;;;8.46;39.85;100070.30;1762925;80;21026;-71
2021/04/24 09:46:54;;;;;;;0.65;0.40;;;;;;;8.55;37.55;100069.13;1762093;80;21023;-71
2021/04/24 09:49:34;;;;;;;0.98;0.30;;;;;;;8.04;35.99;100064.70;1768867;79;21084;-72
2021/04/24 09:52:05;;;;;;;0.82;0.50;;;;;;;8.04;37.79;100077.70;1737948;81;21200;-74
2021/04/24 09:54:46;;;;;;;1.07;0.30;;;;;;;8.18;38.02;100072.06;1713718;83;21145;-73
2021/04/24 09:57:22;;;;;;;2.05;0.40;;;;;;;8.42;39.13;100073.03;1685630;83;21202;-73
2021/04/24 10:00:05;;;;;;;0.47;0.20;;;;;;;8.63;38.45;100074.94;1731323;81;21255;-73
2021/04/24 10:02:39;;;;;;;3.27;0.30;;;;;;;8.38;33.26;100067.05;1716357;82;21164;-73
2021/04/24 10:05:20;;;;;;;0.95;0.70;;;;;;;7.78;35.83;100071.52;1714388;82;21574;-73
2021/04/24 10:07:54;;;;;;;1.37;0.42;;;;;;;7.88;36.44;100067.36;1718813;82;22244;-74
2021/04/24 10:10:35;;;;;;;1.32;0.35;;;;;;;8.05;36.57;100068.98;1718136;82;21037;-74
2021/04/24 10:13:06;;;;;;;0.62;0.20;;;;;;;7.80;34.71;100066.28;1719078;82;21705;-73
2021/04/24 10:15:41;;;;;;;1.55;0.20;;;;;;;7.90;35.13;100066.42;1716274;82;21214;-73
2021/04/24 10:18:11;;;;;;;6.95;0.40;;;;;;;8.26;35.42;100047.50;1719592;82;21214;-74
2021/04/24 10:20:43;;;;;;;2.00;0.40;;;;;;;8.47;35.97;100060.73;1715091;82;21621;-72
2021/04/24 10:23:12;;;;;;;3.58;0.30;;;;;;;8.56;36.58;100068.67;1717275;81;21158;-72
2021/04/24 10:25:41;;;;;;;1.55;0.10;;;;;;;8.63;35.50;100058.02;1716337;82;21174;-74
2021/04/24 10:28:08;;;;;;;0.15;0.15;;;;;;;8.02;30.74;100063.87;1717155;82;21577;-75
2021/04/24 10:30:35;;;;;;;3.70;0.40;;;;;;;7.69;34.01;100062.70;1723985;82;21213;-72
2021/04/24 10:33:03;;;;;;;1.35;0.25;;;;;;;7.61;32.92;100064.67;1719321;82;22362;-73
2021/04/24 10:35:32;;;;;;;1.05;0.20;;;;;;;7.53;31.66;100051.91;1720066;82;21187;-72
2021/04/24 10:38:03;;;;;;;0.55;0.20;;;;;;;7.49;33.52;100074.14;1720210;82;21176;-71
2021/04/24 10:40:30;;;;;;;8.05;0.30;;;;;;;7.39;33.62;100061.43;1715491;82;21237;-74
2021/04/24 10:42:59;;;;;;;1.35;0.10;;;;;;;7.52;30.75;100068.86;1716584;82;21566;-72
2021/04/24 10:45:33;;;;;;;0.55;0.20;;;;;;;7.37;31.64;100065.81;1712755;82;21658;-72
2021/04/24 10:48:01;;;;;;;0.82;0.30;;;;;;;7.45;32.55;100064.72;1721206;82;21629;-71
2021/04/24 10:50:45;;;;;;;2.55;0.25;;;;;;;7.66;33.25;100069.30;1712996;82;21178;-72
2021/04/24 10:53:29;;;;;;;0.40;0.20;;;;;;;7.74;32.92;100063.42;1712266;82;21309;-75
2021/04/24 10:55:59;;;;;;;6.28;0.50;;;;;;;7.47;32.98;100070.73;1713370;82;21176;-69
2021/04/24 10:58:30;;;;;;;5.03;0.40;;;;;;;7.33;33.04;100068.07;1725651;82;22109;-71
2021/04/24 11:01:00;;;;;;;2.95;0.40;;;;;;;7.38;31.97;100080.48;1715848;82;21230;-71
2021/04/24 11:03:54;;;;;;;2.33;0.28;;;;;;;7.49;32.85;100072.84;1715300;82;21073;-71
2021/04/24 11:06:29;;;;;;;1.25;0.15;;;;;;;7.71;33.08;100075.22;1717070;82;21163;-70
2021/04/24 11:09:19;;;;;;;1.05;0.25;;;;;;;7.73;31.42;100090.75;1716619;82;21228;-70
2021/04/24 11:11:49;;;;;;;0.62;0.20;;;;;;;7.61;29.54;100078.97;1715895;82;21506;-71
2021/04/24 11:14:18;;;;;;;1.67;0.30;;;;;;;7.36;30.93;100084.87;1717520;82;21598;-71
2021/04/24 11:16:46;;;;;;;0.57;0.20;;;;;;;7.57;32.33;100095.56;1687569;82;21169;-70
2021/04/24 11:19:44;;;;;;;0.57;0.28;;;;;;;7.83;31.03;100085.23;1691945;84;21213;-70
2021/04/24 11:22:44;;;;;;;7.53;0.75;;;;;;;7.80;28.62;100093.58;1693577;83;21366;-71
2021/04/24 11:25:23;;;;;;;0.45;0.28;;;;;;;7.86;31.54;100086.89;1692276;84;21292;-71
2021/04/24 11:28:10;;;;;;;0.33;0.20;;;;;;;7.63;30.37;100096.22;1701599;83;21238;-70
2021/04/24 11:31:00;;;;;;;1.37;0.30;;;;;;;7.50;27.98;100099.22;1699085;83;21214;-70
2021/04/24 11:36:29;;;;;;;0.30;0.13;;;;;;;7.39;29.65;100086.11;1751009;80;20961;-70
2021/04/24 11:39:06;;;;;;;0.45;0.28;;;;;;;7.08;28.24;100102.95;1755952;80;21025;-70
2021/04/24 11:41:46;;;;;;;1.62;0.20;;;;;;;7.21;29.11;100093.11;1751879;80;21235;-70
2021/04/24 11:44:21;;;;;;;0.30;0.10;;;;;;;7.26;30.02;100092.53;1718943;81;21211;-69
2021/04/24 11:46:54;;;;;;;0.42;0.15;;;;;;;7.43;29.91;100095.11;1709950;82;21083;-69
2021/04/24 11:49:27;;;;;;;0.03;0.03;;;;;;;7.32;28.04;100115.73;1709773;82;21218;-68
2021/04/24 11:52:02;;;;;;;0.55;0.20;;;;;;;7.26;28.20;100113.31;1704906;82;21173;-69